sensor_id;sensor_type;location;lat;lon;timestamp;temperature;humidity
22742;DHT22;11538;48.884;8.696;2022-08-14T00:02:01;21.20;99.90
22742;DHT22;11538;48.884;8.696;2022-08-14T00:04:29;21.20;99.90
22742;DHT22;11538;48.884;8.696;2022-08-14T00:07:09;21.20;99.90
22742;DHT22;11538;48.884;8.696;2022-08-14T00:09:40;21.10;99.90
22742;DHT22;11538;48.884;8.696;2022-08-14T00:12:28;21.10;99.90
22742;DHT22;11538;48.884;8.696;2022-08-14T00:15:20;21.10;99.90
22742;DHT22;11538;48.884;8.696;2022-08-14T00:17:51;21.00;99.90
22742;DHT22;11538;48.884;8.696;2022-08-14T00:20:26;21.00;99.90
22742;DHT22;11538;48.884;8.696;2022-08-14T00:22:58;20.90;99.90
22742;DHT22;11538;48.884;8.696;2022-08-14T00:25:44;20.80;99.90
22742;DHT22;11538;48.884;8.696;2022-08-14T00:28:33;20.60;99.90
22742;DHT22;11538;48.884;8.696;2022-08-14T00:31:03;20.50;99.90
22742;DHT22;11538;48.884;8.696;2022-08-14T00:33:34;20.50;99.90
22742;DHT22;11538;48.884;8.696;2022-08-14T00:36:22;20.60;99.90
22742;DHT22;11538;48.884;8.696;2022-08-14T00:39:13;20.60;99.90
22742;DHT22;11538;48.884;8.696;2022-08-14T00:41:45;20.60;99.90
22742;DHT22;11538;48.884;8.696;2022-08-14T00:44:14;20.60;99.90
22742;DHT22;11538;48.884;8.696;2022-08-14T00:47:02;20.60;99.90
22742;DHT22;11538;48.884;8.696;2022-08-14T00:49:36;20.60;99.90
22742;DHT22;11538;48.884;8.696;2022-08-14T00:52:11;20.60;99.90
22742;DHT22;11538;48.884;8.696;2022-08-14T00:54:44;20.50;99.90
22742;DHT22;11538;48.884;8.696;2022-08-14T00:57:17;20.40;99.90
22742;DHT22;11538;48.884;8.696;2022-08-14T00:59:46;20.40;99.90
22742;DHT22;11538;48.884;8.696;2022-08-14T01:02:18;20.30;99.90
22742;DHT22;11538;48.884;8.696;2022-08-14T01:04:55;20.20;99.90
22742;DHT22;11538;48.884;8.696;2022-08-14T01:07:26;20.20;99.90
22742;DHT22;11538;48.884;8.696;2022-08-14T01:10:04;20.10;99.90
22742;DHT22;11538;48.884;8.696;2022-08-14T01:12:32;20.00;99.90
22742;DHT22;11538;48.884;8.696;2022-08-14T01:15:06;20.00;99.90
22742;DHT22;11538;48.884;8.696;2022-08-14T01:17:40;20.00;99.90
22742;DHT22;11538;48.884;8.696;2022-08-14T01:20:26;19.90;99.90
22742;DHT22;11538;48.884;8.696;2022-08-14T01:23:15;19.90;99.90
22742;DHT22;11538;48.884;8.696;2022-08-14T01:25:47;19.80;99.90
22742;DHT22;11538;48.884;8.696;2022-08-14T01:28:18;19.70;99.90
22742;DHT22;11538;48.884;8.696;2022-08-14T01:31:12;19.70;99.90
22742;DHT22;11538;48.884;8.696;2022-08-14T01:33:45;19.70;99.90
22742;DHT22;11538;48.884;8.696;2022-08-14T01:36:36;19.70;99.90
22742;DHT22;11538;48.884;8.696;2022-08-14T01:39:12;19.70;99.90
22742;DHT22;11538;48.884;8.696;2022-08-14T01:41:45;19.60;99.90
22742;DHT22;11538;48.884;8.696;2022-08-14T01:44:28;19.50;99.90
22742;DHT22;11538;48.884;8.696;2022-08-14T01:47:04;19.40;99.90
22742;DHT22;11538;48.884;8.696;2022-08-14T01:49:48;19.30;99.90
22742;DHT22;11538;48.884;8.696;2022-08-14T01:52:26;19.30;99.90
22742;DHT22;11538;48.884;8.696;2022-08-14T01:55:16;19.30;99.90
22742;DHT22;11538;48.884;8.696;2022-08-14T01:57:44;19.30;99.90
22742;DHT22;11538;48.884;8.696;2022-08-14T02:00:31;19.30;99.90
22742;DHT22;11538;48.884;8.696;2022-08-14T02:03:02;19.20;99.90
22742;DHT22;11538;48.884;8.696;2022-08-14T02:05:33;19.20;99.90
22742;DHT22;11538;48.884;8.696;2022-08-14T02:08:05;19.20;99.90
22742;DHT22;11538;48.884;8.696;2022-08-14T02:10:37;19.10;99.90
22742;DHT22;11538;48.884;8.696;2022-08-14T02:13:15;19.00;99.90
22742;DHT22;11538;48.884;8.696;2022-08-14T02:15:43;18.90;99.90
22742;DHT22;11538;48.884;8.696;2022-08-14T02:18:14;18.80;99.90
22742;DHT22;11538;48.884;8.696;2022-08-14T02:20:43;18.70;99.90
22742;DHT22;11538;48.884;8.696;2022-08-14T02:23:13;18.60;99.90
22742;DHT22;11538;48.884;8.696;2022-08-14T02:25:40;18.60;99.90
22742;DHT22;11538;48.884;8.696;2022-08-14T02:28:08;18.60;99.90
22742;DHT22;11538;48.884;8.696;2022-08-14T02:30:56;18.60;99.90
22742;DHT22;11538;48.884;8.696;2022-08-14T02:33:24;18.60;99.90
22742;DHT22;11538;48.884;8.696;2022-08-14T02:35:55;18.50;99.90
22742;DHT22;11538;48.884;8.696;2022-08-14T02:38:35;18.50;99.90
22742;DHT22;11538;48.884;8.696;2022-08-14T02:41:07;18.60;99.90
22742;DHT22;11538;48.884;8.696;2022-08-14T02:43:37;18.60;99.90
22742;DHT22;11538;48.884;8.696;2022-08-14T02:46:14;18.60;99.90
22742;DHT22;11538;48.884;8.696;2022-08-14T02:48:50;18.50;99.90
22742;DHT22;11538;48.884;8.696;2022-08-14T02:51:32;18.50;99.90
22742;DHT22;11538;48.884;8.696;2022-08-14T02:54:07;18.40;99.90
22742;DHT22;11538;48.884;8.696;2022-08-14T02:56:39;18.30;99.90
22742;DHT22;11538;48.884;8.696;2022-08-14T02:59:27;18.20;99.90
22742;DHT22;11538;48.884;8.696;2022-08-14T03:02:01;18.20;99.90
22742;DHT22;11538;48.884;8.696;2022-08-14T03:04:30;18.20;99.90
22742;DHT22;11538;48.884;8.696;2022-08-14T03:06:59;18.20;99.90
22742;DHT22;11538;48.884;8.696;2022-08-14T03:09:35;18.20;99.90
22742;DHT22;11538;48.884;8.696;2022-08-14T03:12:22;18.30;99.90
22742;DHT22;11538;48.884;8.696;2022-08-14T03:15:00;18.40;99.90
22742;DHT22;11538;48.884;8.696;2022-08-14T03:17:33;18.40;99.90
22742;DHT22;11538;48.884;8.696;2022-08-14T03:20:20;18.40;99.90
22742;DHT22;11538;48.884;8.696;2022-08-14T03:22:48;18.40;99.90
22742;DHT22;11538;48.884;8.696;2022-08-14T03:25:16;18.50;99.90
22742;DHT22;11538;48.884;8.696;2022-08-14T03:27:43;18.50;99.90
22742;DHT22;11538;48.884;8.696;2022-08-14T03:30:23;18.50;99.90
22742;DHT22;11538;48.884;8.696;2022-08-14T03:33:10;18.50;99.90
22742;DHT22;11538;48.884;8.696;2022-08-14T03:35:39;18.60;99.90
22742;DHT22;11538;48.884;8.696;2022-08-14T03:38:27;18.60;99.90
22742;DHT22;11538;48.884;8.696;2022-08-14T03:41:22;18.50;99.90
22742;DHT22;11538;48.884;8.696;2022-08-14T03:43:57;18.50;99.90
22742;DHT22;11538;48.884;8.696;2022-08-14T03:46:47;18.40;99.90
22742;DHT22;11538;48.884;8.696;2022-08-14T03:49:23;18.40;99.90
22742;DHT22;11538;48.884;8.696;2022-08-14T03:51:55;18.40;99.90
22742;DHT22;11538;48.884;8.696;2022-08-14T03:54:27;18.30;99.90
22742;DHT22;11538;48.884;8.696;2022-08-14T03:56:55;18.40;99.90
22742;DHT22;11538;48.884;8.696;2022-08-14T03:59:29;18.30;99.90
22742;DHT22;11538;48.884;8.696;2022-08-14T04:01:58;18.20;99.90
22742;DHT22;11538;48.884;8.696;2022-08-14T04:04:49;18.20;99.90
22742;DHT22;11538;48.884;8.696;2022-08-14T04:07:16;18.30;99.90
22742;DHT22;11538;48.884;8.696;2022-08-14T04:09:44;18.30;99.90
22742;DHT22;11538;48.884;8.696;2022-08-14T04:12:11;18.30;99.90
22742;DHT22;11538;48.884;8.696;2022-08-14T04:14:39;18.30;99.90
22742;DHT22;11538;48.884;8.696;2022-08-14T04:17:07;18.30;99.90
22742;DHT22;11538;48.884;8.696;2022-08-14T04:19:36;18.30;99.90
22742;DHT22;11538;48.884;8.696;2022-08-14T04:22:04;18.30;99.90
22742;DHT22;11538;48.884;8.696;2022-08-14T04:24:32;18.20;99.90
22742;DHT22;11538;48.884;8.696;2022-08-14T04:27:09;18.20;99.90
22742;DHT22;11538;48.884;8.696;2022-08-14T04:29:39;18.20;99.90
22742;DHT22;11538;48.884;8.696;2022-08-14T04:32:09;18.10;99.90
22742;DHT22;11538;48.884;8.696;2022-08-14T04:34:56;18.10;99.90
22742;DHT22;11538;48.884;8.696;2022-08-14T04:37:24;18.10;99.90
22742;DHT22;11538;48.884;8.696;2022-08-14T04:40:12;18.10;99.90
22742;DHT22;11538;48.884;8.696;2022-08-14T04:43:00;18.10;99.90
22742;DHT22;11538;48.884;8.696;2022-08-14T04:45:46;18.10;99.90
22742;DHT22;11538;48.884;8.696;2022-08-14T04:48:17;18.20;99.90
22742;DHT22;11538;48.884;8.696;2022-08-14T04:51:14;18.20;99.90
22742;DHT22;11538;48.884;8.696;2022-08-14T04:53:46;18.20;99.90
22742;DHT22;11538;48.884;8.696;2022-08-14T04:56:17;18.20;99.90
22742;DHT22;11538;48.884;8.696;2022-08-14T04:59:03;18.30;99.90
22742;DHT22;11538;48.884;8.696;2022-08-14T05:01:37;18.30;99.90
22742;DHT22;11538;48.884;8.696;2022-08-14T05:04:16;18.30;99.90
22742;DHT22;11538;48.884;8.696;2022-08-14T05:06:47;18.30;99.90
22742;DHT22;11538;48.884;8.696;2022-08-14T05:09:22;18.30;99.90
22742;DHT22;11538;48.884;8.696;2022-08-14T05:11:49;18.30;99.90
22742;DHT22;11538;48.884;8.696;2022-08-14T05:14:18;18.40;99.90
22742;DHT22;11538;48.884;8.696;2022-08-14T05:17:11;18.40;99.90
22742;DHT22;11538;48.884;8.696;2022-08-14T05:19:41;18.40;99.90
22742;DHT22;11538;48.884;8.696;2022-08-14T05:22:28;18.40;99.90
22742;DHT22;11538;48.884;8.696;2022-08-14T05:24:55;18.50;99.90
22742;DHT22;11538;48.884;8.696;2022-08-14T05:27:21;18.50;99.90
22742;DHT22;11538;48.884;8.696;2022-08-14T05:29:53;18.40;99.90
22742;DHT22;11538;48.884;8.696;2022-08-14T05:32:25;18.40;99.90
22742;DHT22;11538;48.884;8.696;2022-08-14T05:34:57;18.50;99.90
22742;DHT22;11538;48.884;8.696;2022-08-14T05:37:26;18.50;99.90
22742;DHT22;11538;48.884;8.696;2022-08-14T05:39:56;18.50;99.90
22742;DHT22;11538;48.884;8.696;2022-08-14T05:42:24;18.50;99.90
22742;DHT22;11538;48.884;8.696;2022-08-14T05:44:59;18.50;99.90
22742;DHT22;11538;48.884;8.696;2022-08-14T05:47:29;18.50;99.90
22742;DHT22;11538;48.884;8.696;2022-08-14T05:50:10;18.50;99.90
22742;DHT22;11538;48.884;8.696;2022-08-14T05:52:45;18.50;99.90
22742;DHT22;11538;48.884;8.696;2022-08-14T05:55:14;18.50;99.90
22742;DHT22;11538;48.884;8.696;2022-08-14T05:57:59;18.50;99.90
22742;DHT22;11538;48.884;8.696;2022-08-14T06:00:39;18.50;99.90
22742;DHT22;11538;48.884;8.696;2022-08-14T06:03:10;18.60;99.90
22742;DHT22;11538;48.884;8.696;2022-08-14T06:05:43;18.60;99.90
22742;DHT22;11538;48.884;8.696;2022-08-14T06:08:23;18.70;99.90
22742;DHT22;11538;48.884;8.696;2022-08-14T06:11:07;18.80;99.90
22742;DHT22;11538;48.884;8.696;2022-08-14T06:13:40;18.90;99.90
22742;DHT22;11538;48.884;8.696;2022-08-14T06:16:14;18.90;99.90
22742;DHT22;11538;48.884;8.696;2022-08-14T06:18:46;18.90;99.90
22742;DHT22;11538;48.884;8.696;2022-08-14T06:21:17;19.00;99.90
22742;DHT22;11538;48.884;8.696;2022-08-14T06:23:44;19.10;99.90
22742;DHT22;11538;48.884;8.696;2022-08-14T06:26:14;19.20;99.90
22742;DHT22;11538;48.884;8.696;2022-08-14T06:28:43;19.30;99.90
22742;DHT22;11538;48.884;8.696;2022-08-14T06:31:11;19.40;99.90
22742;DHT22;11538;48.884;8.696;2022-08-14T06:33:38;19.50;99.90
22742;DHT22;11538;48.884;8.696;2022-08-14T06:36:25;19.60;99.90
22742;DHT22;11538;48.884;8.696;2022-08-14T06:38:53;19.70;99.90
22742;DHT22;11538;48.884;8.696;2022-08-14T06:41:21;19.80;99.90
22742;DHT22;11538;48.884;8.696;2022-08-14T06:44:08;19.90;99.90
22742;DHT22;11538;48.884;8.696;2022-08-14T06:46:36;20.00;99.90
22742;DHT22;11538;48.884;8.696;2022-08-14T06:49:03;20.10;99.90
22742;DHT22;11538;48.884;8.696;2022-08-14T06:51:31;20.20;99.90
22742;DHT22;11538;48.884;8.696;2022-08-14T06:54:10;20.30;99.90
22742;DHT22;11538;48.884;8.696;2022-08-14T06:56:38;20.40;99.90
22742;DHT22;11538;48.884;8.696;2022-08-14T06:59:12;20.40;99.90
22742;DHT22;11538;48.884;8.696;2022-08-14T07:01:45;20.60;99.90
22742;DHT22;11538;48.884;8.696;2022-08-14T07:04:38;20.70;99.90
22742;DHT22;11538;48.884;8.696;2022-08-14T07:07:24;20.80;99.90
22742;DHT22;11538;48.884;8.696;2022-08-14T07:09:54;20.90;99.90
22742;DHT22;11538;48.884;8.696;2022-08-14T07:12:21;21.00;99.90
22742;DHT22;11538;48.884;8.696;2022-08-14T07:15:09;21.10;99.90
22742;DHT22;11538;48.884;8.696;2022-08-14T07:17:47;21.20;99.90
22742;DHT22;11538;48.884;8.696;2022-08-14T07:20:18;21.40;99.90
22742;DHT22;11538;48.884;8.696;2022-08-14T07:22:59;21.50;99.90
22742;DHT22;11538;48.884;8.696;2022-08-14T07:25:36;21.60;99.90
22742;DHT22;11538;48.884;8.696;2022-08-14T07:28:11;21.80;99.90
22742;DHT22;11538;48.884;8.696;2022-08-14T07:30:47;22.00;99.90
22742;DHT22;11538;48.884;8.696;2022-08-14T07:33:17;22.10;99.90
22742;DHT22;11538;48.884;8.696;2022-08-14T07:35:51;22.30;99.90
22742;DHT22;11538;48.884;8.696;2022-08-14T07:38:25;22.50;99.90
22742;DHT22;11538;48.884;8.696;2022-08-14T07:41:03;22.60;99.90
22742;DHT22;11538;48.884;8.696;2022-08-14T07:43:41;22.90;99.90
22742;DHT22;11538;48.884;8.696;2022-08-14T07:46:20;23.10;99.90
22742;DHT22;11538;48.884;8.696;2022-08-14T07:48:57;23.30;99.90
22742;DHT22;11538;48.884;8.696;2022-08-14T07:51:26;23.60;99.90
22742;DHT22;11538;48.884;8.696;2022-08-14T07:54:03;23.80;99.90
22742;DHT22;11538;48.884;8.696;2022-08-14T07:56:37;24.00;99.90
22742;DHT22;11538;48.884;8.696;2022-08-14T07:59:15;24.30;99.90
22742;DHT22;11538;48.884;8.696;2022-08-14T08:01:45;24.50;99.90
22742;DHT22;11538;48.884;8.696;2022-08-14T08:04:21;24.80;99.90
22742;DHT22;11538;48.884;8.696;2022-08-14T08:06:53;25.00;99.90
22742;DHT22;11538;48.884;8.696;2022-08-14T08:09:24;25.20;99.90
22742;DHT22;11538;48.884;8.696;2022-08-14T08:12:01;25.50;99.90
22742;DHT22;11538;48.884;8.696;2022-08-14T08:14:32;25.70;99.90
22742;DHT22;11538;48.884;8.696;2022-08-14T08:17:22;26.00;99.90
22742;DHT22;11538;48.884;8.696;2022-08-14T08:19:49;26.30;99.90
22742;DHT22;11538;48.884;8.696;2022-08-14T08:22:17;26.50;99.90
22742;DHT22;11538;48.884;8.696;2022-08-14T08:24:47;26.80;99.90
22742;DHT22;11538;48.884;8.696;2022-08-14T08:27:17;27.00;99.90
22742;DHT22;11538;48.884;8.696;2022-08-14T08:29:49;27.20;99.90
22742;DHT22;11538;48.884;8.696;2022-08-14T08:32:17;27.40;99.90
22742;DHT22;11538;48.884;8.696;2022-08-14T08:34:46;27.70;99.90
22742;DHT22;11538;48.884;8.696;2022-08-14T08:37:14;28.00;99.90
22742;DHT22;11538;48.884;8.696;2022-08-14T08:39:46;28.20;99.90
22742;DHT22;11538;48.884;8.696;2022-08-14T08:42:30;28.40;99.90
22742;DHT22;11538;48.884;8.696;2022-08-14T08:45:13;28.60;99.90
22742;DHT22;11538;48.884;8.696;2022-08-14T08:47:43;28.80;99.90
22742;DHT22;11538;48.884;8.696;2022-08-14T08:50:17;29.00;99.90
22742;DHT22;11538;48.884;8.696;2022-08-14T08:52:59;29.20;99.90
22742;DHT22;11538;48.884;8.696;2022-08-14T08:58:03;29.60;99.90
22742;DHT22;11538;48.884;8.696;2022-08-14T09:00:52;29.70;99.90
22742;DHT22;11538;48.884;8.696;2022-08-14T09:03:23;29.90;99.90
22742;DHT22;11538;48.884;8.696;2022-08-14T09:05:57;30.10;99.90
22742;DHT22;11538;48.884;8.696;2022-08-14T09:08:33;30.30;99.90
22742;DHT22;11538;48.884;8.696;2022-08-14T09:11:06;30.40;99.90
22742;DHT22;11538;48.884;8.696;2022-08-14T09:13:48;30.60;99.90
22742;DHT22;11538;48.884;8.696;2022-08-14T09:16:21;30.80;99.90
22742;DHT22;11538;48.884;8.696;2022-08-14T09:18:51;30.80;99.90
22742;DHT22;11538;48.884;8.696;2022-08-14T09:21:20;31.00;99.90
22742;DHT22;11538;48.884;8.696;2022-08-14T09:23:52;31.10;99.90
22742;DHT22;11538;48.884;8.696;2022-08-14T09:26:43;31.20;99.90
22742;DHT22;11538;48.884;8.696;2022-08-14T09:29:16;31.20;99.90
22742;DHT22;11538;48.884;8.696;2022-08-14T09:31:52;31.30;99.90
22742;DHT22;11538;48.884;8.696;2022-08-14T09:34:45;31.30;99.90
22742;DHT22;11538;48.884;8.696;2022-08-14T09:37:59;31.20;99.90
22742;DHT22;11538;48.884;8.696;2022-08-14T09:43:32;31.30;99.90
22742;DHT22;11538;48.884;8.696;2022-08-14T09:46:06;31.30;99.90
22742;DHT22;11538;48.884;8.696;2022-08-14T09:48:34;31.40;99.90
22742;DHT22;11538;48.884;8.696;2022-08-14T09:51:17;31.60;99.90
22742;DHT22;11538;48.884;8.696;2022-08-14T09:54:05;31.70;99.90
22742;DHT22;11538;48.884;8.696;2022-08-14T09:56:50;31.90;99.90
22742;DHT22;11538;48.884;8.696;2022-08-14T09:59:23;32.10;99.90
22742;DHT22;11538;48.884;8.696;2022-08-14T10:01:53;32.20;99.90
22742;DHT22;11538;48.884;8.696;2022-08-14T10:04:24;32.30;99.90
22742;DHT22;11538;48.884;8.696;2022-08-14T10:07:06;32.50;99.90
22742;DHT22;11538;48.884;8.696;2022-08-14T10:09:48;32.60;99.90
22742;DHT22;11538;48.884;8.696;2022-08-14T10:12:45;32.70;99.90
22742;DHT22;11538;48.884;8.696;2022-08-14T10:15:26;32.80;99.90
22742;DHT22;11538;48.884;8.696;2022-08-14T10:18:13;32.90;99.90
22742;DHT22;11538;48.884;8.696;2022-08-14T10:20:58;33.10;99.90
22742;DHT22;11538;48.884;8.696;2022-08-14T10:23:39;33.20;99.90
22742;DHT22;11538;48.884;8.696;2022-08-14T10:26:09;33.30;99.90
22742;DHT22;11538;48.884;8.696;2022-08-14T10:28:50;33.30;99.90
22742;DHT22;11538;48.884;8.696;2022-08-14T10:31:37;33.40;99.90
22742;DHT22;11538;48.884;8.696;2022-08-14T10:34:17;33.60;99.90
22742;DHT22;11538;48.884;8.696;2022-08-14T10:37:11;33.60;99.90
22742;DHT22;11538;48.884;8.696;2022-08-14T10:39:42;33.80;99.90
22742;DHT22;11538;48.884;8.696;2022-08-14T10:42:40;33.90;99.90
22742;DHT22;11538;48.884;8.696;2022-08-14T10:45:29;34.00;99.90
22742;DHT22;11538;48.884;8.696;2022-08-14T10:48:13;34.20;99.90
22742;DHT22;11538;48.884;8.696;2022-08-14T10:51:02;34.30;99.90
22742;DHT22;11538;48.884;8.696;2022-08-14T10:53:34;34.40;99.90
22742;DHT22;11538;48.884;8.696;2022-08-14T10:56:10;34.50;99.90
22742;DHT22;11538;48.884;8.696;2022-08-14T10:59:03;34.50;99.90
22742;DHT22;11538;48.884;8.696;2022-08-14T11:01:37;34.60;99.90
22742;DHT22;11538;48.884;8.696;2022-08-14T11:04:21;34.70;99.90
22742;DHT22;11538;48.884;8.696;2022-08-14T11:06:54;34.90;99.90
22742;DHT22;11538;48.884;8.696;2022-08-14T11:09:22;35.10;99.90
22742;DHT22;11538;48.884;8.696;2022-08-14T11:11:56;35.10;99.90
22742;DHT22;11538;48.884;8.696;2022-08-14T11:14:55;35.10;99.90
22742;DHT22;11538;48.884;8.696;2022-08-14T11:17:29;35.20;99.90
22742;DHT22;11538;48.884;8.696;2022-08-14T11:20:00;35.40;99.90
22742;DHT22;11538;48.884;8.696;2022-08-14T11:22:32;35.60;99.90
22742;DHT22;11538;48.884;8.696;2022-08-14T11:25:22;35.80;99.90
22742;DHT22;11538;48.884;8.696;2022-08-14T11:28:11;36.00;99.90
22742;DHT22;11538;48.884;8.696;2022-08-14T11:30:47;36.20;99.90
22742;DHT22;11538;48.884;8.696;2022-08-14T11:33:24;36.40;99.90
22742;DHT22;11538;48.884;8.696;2022-08-14T11:35:59;36.50;99.90
22742;DHT22;11538;48.884;8.696;2022-08-14T11:38:45;36.70;99.90
22742;DHT22;11538;48.884;8.696;2022-08-14T11:41:14;37.00;99.90
22742;DHT22;11538;48.884;8.696;2022-08-14T11:43:47;37.20;99.90
22742;DHT22;11538;48.884;8.696;2022-08-14T11:46:25;37.50;99.90
22742;DHT22;11538;48.884;8.696;2022-08-14T11:49:03;37.80;99.90
22742;DHT22;11538;48.884;8.696;2022-08-14T11:51:32;38.10;99.90
22742;DHT22;11538;48.884;8.696;2022-08-14T11:54:20;38.40;99.90
22742;DHT22;11538;48.884;8.696;2022-08-14T11:57:01;38.70;99.90
22742;DHT22;11538;48.884;8.696;2022-08-14T11:59:31;39.00;99.90
22742;DHT22;11538;48.884;8.696;2022-08-14T12:02:09;39.20;99.90
22742;DHT22;11538;48.884;8.696;2022-08-14T12:05:01;39.40;99.90
22742;DHT22;11538;48.884;8.696;2022-08-14T12:07:29;39.60;99.90
22742;DHT22;11538;48.884;8.696;2022-08-14T12:09:57;39.70;99.90
22742;DHT22;11538;48.884;8.696;2022-08-14T12:12:48;39.70;99.90
22742;DHT22;11538;48.884;8.696;2022-08-14T12:15:33;39.70;99.90
22742;DHT22;11538;48.884;8.696;2022-08-14T12:18:01;39.80;99.90
22742;DHT22;11538;48.884;8.696;2022-08-14T12:20:32;40.00;99.90
22742;DHT22;11538;48.884;8.696;2022-08-14T12:23:04;40.20;99.90
22742;DHT22;11538;48.884;8.696;2022-08-14T12:25:34;40.40;99.90
22742;DHT22;11538;48.884;8.696;2022-08-14T12:28:10;40.60;98.30
22742;DHT22;11538;48.884;8.696;2022-08-14T12:30:57;40.80;98.00
22742;DHT22;11538;48.884;8.696;2022-08-14T12:33:28;41.00;96.60
22742;DHT22;11538;48.884;8.696;2022-08-14T12:36:07;41.10;95.40
22742;DHT22;11538;48.884;8.696;2022-08-14T12:38:41;41.20;95.30
22742;DHT22;11538;48.884;8.696;2022-08-14T12:41:11;41.30;95.30
22742;DHT22;11538;48.884;8.696;2022-08-14T12:44:07;41.40;95.20
22742;DHT22;11538;48.884;8.696;2022-08-14T12:46:39;41.40;95.00
22742;DHT22;11538;48.884;8.696;2022-08-14T12:49:15;41.40;94.80
22742;DHT22;11538;48.884;8.696;2022-08-14T12:51:55;41.30;94.50
22742;DHT22;11538;48.884;8.696;2022-08-14T12:54:24;41.40;94.40
22742;DHT22;11538;48.884;8.696;2022-08-14T12:57:36;41.50;94.30
22742;DHT22;11538;48.884;8.696;2022-08-14T13:02:51;41.90;91.40
22742;DHT22;11538;48.884;8.696;2022-08-14T13:05:23;42.10;90.10
22742;DHT22;11538;48.884;8.696;2022-08-14T13:08:05;42.20;89.00
22742;DHT22;11538;48.884;8.696;2022-08-14T13:10:52;42.40;85.80
22742;DHT22;11538;48.884;8.696;2022-08-14T13:13:21;42.50;84.40
22742;DHT22;11538;48.884;8.696;2022-08-14T13:15:55;42.60;82.50
22742;DHT22;11538;48.884;8.696;2022-08-14T13:18:24;42.70;81.30
22742;DHT22;11538;48.884;8.696;2022-08-14T13:20:56;42.90;79.80
22742;DHT22;11538;48.884;8.696;2022-08-14T13:23:32;42.90;77.80
22742;DHT22;11538;48.884;8.696;2022-08-14T13:26:03;42.90;76.80
22742;DHT22;11538;48.884;8.696;2022-08-14T13:28:32;42.60;76.90
22742;DHT22;11538;48.884;8.696;2022-08-14T13:31:25;42.50;78.10
22742;DHT22;11538;48.884;8.696;2022-08-14T13:33:55;42.30;77.50
22742;DHT22;11538;48.884;8.696;2022-08-14T13:36:25;42.30;76.60
22742;DHT22;11538;48.884;8.696;2022-08-14T13:39:15;42.30;78.00
22742;DHT22;11538;48.884;8.696;2022-08-14T13:41:44;42.20;99.80
22742;DHT22;11538;48.884;8.696;2022-08-14T13:44:25;42.10;74.70
22742;DHT22;11538;48.884;8.696;2022-08-14T13:46:54;42.10;74.50
22742;DHT22;11538;48.884;8.696;2022-08-14T13:49:21;42.10;74.50
22742;DHT22;11538;48.884;8.696;2022-08-14T13:51:51;42.10;73.30
22742;DHT22;11538;48.884;8.696;2022-08-14T13:54:28;42.20;72.70
22742;DHT22;11538;48.884;8.696;2022-08-14T13:57:01;42.20;73.10
22742;DHT22;11538;48.884;8.696;2022-08-14T13:59:29;42.20;70.30
22742;DHT22;11538;48.884;8.696;2022-08-14T14:02:05;42.20;70.20
22742;DHT22;11538;48.884;8.696;2022-08-14T14:04:39;42.10;71.00
22742;DHT22;11538;48.884;8.696;2022-08-14T14:07:14;41.90;70.10
22742;DHT22;11538;48.884;8.696;2022-08-14T14:09:45;41.60;71.30
22742;DHT22;11538;48.884;8.696;2022-08-14T14:12:18;41.40;72.00
22742;DHT22;11538;48.884;8.696;2022-08-14T14:15:11;41.20;73.70
22742;DHT22;11538;48.884;8.696;2022-08-14T14:17:44;40.80;75.30
22742;DHT22;11538;48.884;8.696;2022-08-14T14:20:16;40.50;76.50
22742;DHT22;11538;48.884;8.696;2022-08-14T14:23:02;40.30;77.80
22742;DHT22;11538;48.884;8.696;2022-08-14T14:25:42;39.90;79.50
22742;DHT22;11538;48.884;8.696;2022-08-14T14:28:29;39.70;81.50
22742;DHT22;11538;48.884;8.696;2022-08-14T14:30:59;39.30;84.30
22742;DHT22;11538;48.884;8.696;2022-08-14T14:33:34;38.90;86.00
22742;DHT22;11538;48.884;8.696;2022-08-14T14:36:19;38.70;87.70
22742;DHT22;11538;48.884;8.696;2022-08-14T14:38:55;38.40;99.90
22742;DHT22;11538;48.884;8.696;2022-08-14T14:41:26;38.10;90.90
22742;DHT22;11538;48.884;8.696;2022-08-14T14:44:08;37.80;91.40
22742;DHT22;11538;48.884;8.696;2022-08-14T14:46:43;37.60;92.80
22742;DHT22;11538;48.884;8.696;2022-08-14T14:49:17;37.30;93.10
22742;DHT22;11538;48.884;8.696;2022-08-14T14:51:48;37.10;93.60
22742;DHT22;11538;48.884;8.696;2022-08-14T14:54:19;36.90;93.50
22742;DHT22;11538;48.884;8.696;2022-08-14T14:57:04;36.70;93.50
22742;DHT22;11538;48.884;8.696;2022-08-14T14:59:37;36.60;93.50
22742;DHT22;11538;48.884;8.696;2022-08-14T15:02:05;36.40;93.50
22742;DHT22;11538;48.884;8.696;2022-08-14T15:04:37;36.20;93.50
22742;DHT22;11538;48.884;8.696;2022-08-14T15:07:09;36.00;93.60
22742;DHT22;11538;48.884;8.696;2022-08-14T15:09:38;35.70;94.10
22742;DHT22;11538;48.884;8.696;2022-08-14T15:12:06;35.50;95.00
22742;DHT22;11538;48.884;8.696;2022-08-14T15:14:53;35.30;95.50
22742;DHT22;11538;48.884;8.696;2022-08-14T15:17:35;35.20;96.30
22742;DHT22;11538;48.884;8.696;2022-08-14T15:20:12;35.00;96.60
22742;DHT22;11538;48.884;8.696;2022-08-14T15:22:43;34.90;97.10
22742;DHT22;11538;48.884;8.696;2022-08-14T15:25:17;34.80;97.40
22742;DHT22;11538;48.884;8.696;2022-08-14T15:27:44;34.70;98.00
22742;DHT22;11538;48.884;8.696;2022-08-14T15:30:15;34.60;97.90
22742;DHT22;11538;48.884;8.696;2022-08-14T15:32:58;34.50;98.50
22742;DHT22;11538;48.884;8.696;2022-08-14T15:35:30;34.40;99.20
22742;DHT22;11538;48.884;8.696;2022-08-14T15:38:01;34.30;99.20
22742;DHT22;11538;48.884;8.696;2022-08-14T15:40:38;34.20;99.80
22742;DHT22;11538;48.884;8.696;2022-08-14T15:43:09;34.10;99.90
22742;DHT22;11538;48.884;8.696;2022-08-14T15:45:39;33.90;99.90
22742;DHT22;11538;48.884;8.696;2022-08-14T15:48:07;33.80;99.90
22742;DHT22;11538;48.884;8.696;2022-08-14T15:50:48;33.80;99.90
22742;DHT22;11538;48.884;8.696;2022-08-14T15:53:17;33.70;99.90
22742;DHT22;11538;48.884;8.696;2022-08-14T15:55:52;33.60;99.90
22742;DHT22;11538;48.884;8.696;2022-08-14T15:58:22;33.50;99.90
22742;DHT22;11538;48.884;8.696;2022-08-14T16:00:52;33.40;99.90
22742;DHT22;11538;48.884;8.696;2022-08-14T16:03:39;33.20;99.90
22742;DHT22;11538;48.884;8.696;2022-08-14T16:06:15;33.20;99.90
22742;DHT22;11538;48.884;8.696;2022-08-14T16:08:49;33.10;99.90
22742;DHT22;11538;48.884;8.696;2022-08-14T16:11:25;33.00;99.90
22742;DHT22;11538;48.884;8.696;2022-08-14T16:13:58;32.90;99.90
22742;DHT22;11538;48.884;8.696;2022-08-14T16:16:27;32.80;99.90
22742;DHT22;11538;48.884;8.696;2022-08-14T16:19:18;32.80;99.90
22742;DHT22;11538;48.884;8.696;2022-08-14T16:21:46;32.80;99.90
22742;DHT22;11538;48.884;8.696;2022-08-14T16:24:38;32.70;99.90
22742;DHT22;11538;48.884;8.696;2022-08-14T16:27:27;32.60;99.90
22742;DHT22;11538;48.884;8.696;2022-08-14T16:30:16;32.50;99.90
22742;DHT22;11538;48.884;8.696;2022-08-14T16:32:52;32.50;99.90
22742;DHT22;11538;48.884;8.696;2022-08-14T16:35:24;32.40;99.90